Time;durP1;ratioP1;P1;durP2;ratioP2;P2;SDS_P1;SDS_P2;PMS_P1;PMS_P2;Temp;Humidity;BMP_temperature;BMP_pressure;BME280_temperature;BME280_humidity;BME280_pressure;Samples;Min_cycle;Max_cycle;Signal;HPM_P1;HPM_P2
2022/05/14 00:00:50;;;;;;;;;5.00;5.00;;;;;20.26;39.71;101689.25;2089932;28;47809;-57
2022/05/14 00:01:50;;;;;;;;;5.50;4.00;;;;;20.26;39.69;101682.97;2091550;28;47242;-57
2022/05/14 00:02:51;;;;;;;;;3.00;3.00;;;;;20.24;39.99;101691.16;2089548;28;47457;-57
2022/05/14 00:03:52;;;;;;;;;4.00;4.00;;;;;20.24;39.63;101687.56;2091163;28;47550;-56
2022/05/14 00:04:52;;;;;;;;;3.25;3.25;;;;;20.23;39.86;101680.44;2092519;28;47587;-56
2022/05/14 00:05:56;;;;;;;;;5.00;3.75;;;;;20.21;39.67;101676.94;2088589;28;48025;-57
2022/05/14 00:06:56;;;;;;;;;4.25;3.50;;;;;20.20;39.68;101676.06;2084734;28;47463;-56
2022/05/14 00:07:57;;;;;;;;;5.00;5.00;;;;;20.19;39.69;101682.38;2087777;28;46425;-57
2022/05/14 00:09:02;;;;;;;;;5.00;3.33;;;;;20.18;39.73;101683.31;2089226;28;47481;-56
2022/05/14 00:10:04;;;;;;;;;4.25;4.25;;;;;20.17;40.38;101686.09;2092237;28;47468;-56
2022/05/14 00:13:43;;;;;;;;;5.20;5.20;;;;;20.14;40.03;101683.53;2096533;27;47320;-56
2022/05/14 00:14:44;;;;;;;;;3.20;3.20;;;;;20.13;39.87;101677.28;2097495;28;48062;-56
2022/05/14 00:15:44;;;;;;;;;4.00;4.00;;;;;20.12;40.38;101672.84;2089792;28;48544;-56
2022/05/14 00:16:45;;;;;;;;;7.00;6.25;;;;;20.12;40.24;101672.84;2093049;28;47987;-56
2022/05/14 00:17:46;;;;;;;;;3.75;3.75;;;;;20.12;40.18;101680.06;2093074;28;47687;-55
2022/05/14 00:18:48;;;;;;;;;5.20;5.20;;;;;20.12;40.44;101682.75;2079816;28;47703;-57
2022/05/14 00:19:48;;;;;;;;;4.80;3.80;;;;;20.12;40.15;101677.34;2085220;28;48440;-56
2022/05/14 00:20:50;;;;;;;;;5.00;3.25;;;;;20.12;40.03;101680.06;2091389;28;47714;-56
2022/05/14 00:21:50;;;;;;;;;3.00;3.00;;;;;20.12;40.45;101677.34;2091492;28;47390;-56
2022/05/14 00:22:52;;;;;;;;;3.75;3.75;;;;;20.12;40.30;101675.53;2094428;28;46581;-56
2022/05/14 00:23:52;;;;;;;;;4.80;4.80;;;;;20.12;40.51;101682.75;2080396;28;47720;-57
2022/05/14 00:24:53;;;;;;;;;4.25;4.25;;;;;20.10;40.34;101684.66;2083508;28;47533;-56
2022/05/14 00:25:54;;;;;;;;;4.00;4.00;;;;;20.09;40.57;101685.59;2093042;28;47696;-57
2022/05/14 00:26:54;;;;;;;;;6.00;5.60;;;;;20.08;40.54;101681.16;2088628;28;47813;-55
2022/05/14 00:27:55;;;;;;;;;4.00;3.25;;;;;20.07;40.87;101676.69;2094504;28;47546;-55
2022/05/14 00:28:56;;;;;;;;;3.40;3.40;;;;;20.07;40.49;101680.25;2092010;28;47565;-56
2022/05/14 00:29:56;;;;;;;;;3.00;3.00;;;;;20.08;40.69;101673.06;2091222;28;47764;-55
2022/05/14 00:30:57;;;;;;;;;5.40;5.40;;;;;20.07;40.26;101679.38;2094017;28;48149;-55
2022/05/14 00:31:57;;;;;;;;;6.00;5.00;;;;;20.06;40.57;101677.63;2088278;28;47644;-56
2022/05/14 00:32:58;;;;;;;;;4.00;4.00;;;;;20.06;40.30;101677.63;2092366;28;48164;-56
2022/05/14 00:33:59;;;;;;;;;3.25;3.25;;;;;20.05;40.73;101681.25;2093591;28;47851;-56
2022/05/14 00:34:59;;;;;;;;;3.75;3.75;;;;;20.05;40.35;101673.19;2088669;28;47748;-57
2022/05/14 00:35:59;;;;;;;;;5.00;5.00;;;;;20.03;40.30;101672.38;2083038;28;47728;-56
2022/05/14 00:37:00;;;;;;;;;5.50;4.25;;;;;20.01;40.72;101672.47;2091721;28;47579;-56
2022/05/14 00:38:01;;;;;;;;;4.75;4.75;;;;;20.01;40.43;101674.28;2090200;28;48003;-56
2022/05/14 00:39:02;;;;;;;;;5.00;5.00;;;;;20.00;40.60;101673.41;2088326;28;48082;-56
2022/05/14 00:40:07;;;;;;;;;7.00;6.25;;;;;19.97;40.85;101673.56;2094080;28;47587;-56
2022/05/14 00:41:08;;;;;;;;;6.80;5.20;;;;;19.95;40.60;101670.06;2088289;28;47813;-56
2022/05/14 00:42:09;;;;;;;;;5.40;5.00;;;;;19.93;40.44;101675.50;2078936;28;47641;-55
2022/05/14 00:43:10;;;;;;;;;7.00;6.00;;;;;19.93;41.00;101674.63;2085649;28;46788;-56
2022/05/14 00:44:10;;;;;;;;;5.00;4.00;;;;;19.91;40.97;101672.00;2091427;28;47690;-56
2022/05/14 00:45:12;;;;;;;;;2.00;2.00;;;;;19.91;41.02;101668.44;2097037;28;47927;-57
2022/05/14 00:46:24;;;;;;;;;3.20;3.20;;;;;19.88;40.88;101669.44;2094878;28;47704;-52
2022/05/14 00:47:29;;;;;;;;;2.40;2.40;;;;;19.89;40.45;101663.13;2092405;28;47872;-56
2022/05/14 00:48:38;;;;;;;;;5.00;3.00;;;;;19.90;40.86;101664.84;2087819;28;47556;-56
2022/05/14 00:49:38;;;;;;;;;3.40;3.00;;;;;19.91;40.88;101668.44;2086942;28;47782;-57
2022/05/14 00:50:44;;;;;;;;;3.00;3.00;;;;;19.91;40.97;101668.44;2088574;28;47722;-55
2022/05/14 00:51:45;;;;;;;;;5.80;3.80;;;;;19.89;40.79;101665.81;2087384;28;47656;-56
2022/05/14 00:52:46;;;;;;;;;3.20;3.20;;;;;19.90;41.26;101672.06;2087522;28;48183;-56
2022/05/14 00:53:51;;;;;;;;;4.75;4.75;;;;;19.89;40.80;101663.13;2085955;28;47987;-57
2022/05/14 00:55:03;;;;;;;;;2.60;2.60;;;;;19.88;40.84;101666.75;2088753;28;48030;-57
2022/05/14 00:56:09;;;;;;;;;2.20;2.20;;;;;19.86;41.22;101665.97;2092592;28;47939;-57
2022/05/14 00:57:13;;;;;;;;;3.20;3.20;;;;;19.85;40.85;101660.63;2091344;28;47955;-56
2022/05/14 00:58:25;;;;;;;;;3.00;2.00;;;;;19.85;40.91;101658.81;2093979;28;47672;-56
2022/05/14 00:59:26;;;;;;;;;3.00;3.00;;;;;19.83;41.13;101663.41;2088446;28;47729;-57
2022/05/14 01:00:29;;;;;;;;;4.20;4.20;;;;;19.84;41.13;101666.97;2088436;28;47801;-57
2022/05/14 01:01:29;;;;;;;;;1.80;1.80;;;;;19.82;40.84;101660.75;2088150;28;47299;-56
2022/05/14 01:02:30;;;;;;;;;4.00;3.00;;;;;19.80;41.08;101665.34;2086459;28;48087;-57
2022/05/14 01:03:33;;;;;;;;;4.00;4.00;;;;;19.81;41.00;101656.31;2088601;28;45261;-57
2022/05/14 01:04:34;;;;;;;;;3.00;3.00;;;;;19.80;41.02;101658.13;2088204;28;48441;-57
2022/05/14 01:05:35;;;;;;;;;3.20;3.20;;;;;19.79;40.64;101664.47;2087569;28;47629;-57
2022/05/14 01:06:40;;;;;;;;;2.00;2.00;;;;;19.80;41.38;101660.81;2088211;28;48012;-57
2022/05/14 01:07:41;;;;;;;;;4.00;4.00;;;;;19.80;41.14;101654.56;2080984;28;46784;-55
2022/05/14 01:08:42;;;;;;;;;4.20;3.20;;;;;19.80;40.71;101658.13;2087938;28;47494;-57
2022/05/14 01:09:51;;;;;;;;;4.60;3.60;;;;;19.80;41.11;101660.81;2088145;28;47700;-56
2022/05/14 01:10:52;;;;;;;;;3.60;2.80;;;;;19.80;41.16;101651.88;2080226;28;47646;-56
2022/05/14 01:11:54;;;;;;;;;3.80;3.00;;;;;19.81;41.09;101651.81;2088535;28;47578;-56
2022/05/14 01:13:00;;;;;;;;;4.20;4.20;;;;;19.81;40.94;101656.31;2087800;28;48485;-57
2022/05/14 01:14:01;;;;;;;;;2.20;2.20;;;;;19.81;40.89;101650.94;2096426;28;47822;-56
2022/05/14 01:15:11;;;;;;;;;3.00;3.00;;;;;19.81;40.92;101659.00;2087990;28;47568;-60
2022/05/14 01:16:11;;;;;;;;;2.00;2.00;;;;;19.79;40.66;101660.91;2088456;28;47921;-57
2022/05/14 01:17:13;;;;;;;;;3.50;3.50;;;;;19.78;41.17;101654.63;2087582;28;48101;-57
2022/05/14 01:18:14;;;;;;;;;8.20;5.20;;;;;19.78;41.05;101648.38;2088446;28;46832;-57
2022/05/14 01:19:14;;;;;;;;;2.25;2.25;;;;;19.78;41.19;101651.06;2088246;28;47537;-57
2022/05/14 01:20:17;;;;;;;;;5.00;3.50;;;;;19.76;41.27;101651.16;2095306;28;47787;-57
2022/05/14 01:21:36;;;;;;;;;2.00;2.00;;;;;19.75;41.09;101649.41;2094827;28;48211;-57
2022/05/14 01:23:10;;;;;;;;;2.80;2.80;;;;;19.74;41.18;101644.97;2084011;28;47276;-56
2022/05/14 01:26:27;;;;;;;;;2.60;2.60;;;;;19.69;41.15;101645.19;2088104;28;48092;-56
2022/05/14 01:27:28;;;;;;;;;3.00;3.00;;;;;19.66;41.17;101645.28;2087947;28;47706;-56
2022/05/14 01:28:29;;;;;;;;;2.00;2.00;;;;;19.65;41.31;101654.31;2093237;28;48405;-56
2022/05/14 01:29:30;;;;;;;;;3.20;3.20;;;;;19.64;41.11;101651.69;2088125;28;47297;-55
2022/05/14 01:30:31;;;;;;;;;1.80;1.80;;;;;19.63;41.22;101648.13;2093736;28;47990;-56
2022/05/14 01:31:33;;;;;;;;;3.40;2.00;;;;;19.63;41.24;101645.44;2089209;28;47625;-55
2022/05/14 01:32:33;;;;;;;;;2.60;2.60;;;;;19.64;41.56;101647.19;2087980;28;48072;-55
2022/05/14 01:33:36;;;;;;;;;3.00;3.00;;;;;19.63;41.54;101642.75;2087448;28;47760;-56
2022/05/14 01:34:36;;;;;;;;;4.80;3.80;;;;;19.62;41.28;101643.69;2089163;28;48190;-56
2022/05/14 01:35:40;;;;;;;;;3.25;3.00;;;;;19.63;41.72;101647.25;2088160;28;47472;-56
2022/05/14 01:36:40;;;;;;;;;3.00;1.00;;;;;19.63;41.34;101644.56;2104577;27;47829;-57
2022/05/14 01:37:41;;;;;;;;;3.50;3.50;;;;;19.62;41.66;101643.69;2104468;27;47954;-57
2022/05/14 01:38:42;;;;;;;;;3.75;3.75;;;;;19.63;41.34;101640.03;2087661;28;47711;-55
2022/05/14 01:39:42;;;;;;;;;4.00;4.00;;;;;19.62;41.29;101641.00;2086680;28;47677;-56
2022/05/14 01:40:43;;;;;;;;;3.00;3.00;;;;;19.62;41.73;101638.31;2088275;28;46329;-56
2022/05/14 01:41:44;;;;;;;;;3.20;3.20;;;;;19.64;41.27;101638.22;2088065;28;48157;-55
2022/05/14 01:42:44;;;;;;;;;3.00;3.00;;;;;19.64;41.55;101638.22;2088980;28;47439;-56
2022/05/14 01:43:45;;;;;;;;;4.75;3.75;;;;;19.63;41.44;101637.34;2084327;28;47931;-56
2022/05/14 01:44:46;;;;;;;;;3.00;2.50;;;;;19.61;41.47;101641.06;2089017;28;47325;-56
2022/05/14 01:45:47;;;;;;;;;2.40;2.40;;;;;19.59;41.31;101634.88;2089272;28;47644;-54
2022/05/14 01:46:47;;;;;;;;;3.00;3.00;;;;;19.57;41.80;101634.06;2087944;28;47612;-55
2022/05/14 01:47:48;;;;;;;;;5.00;2.75;;;;;19.55;41.66;101633.25;2087703;28;47665;-56
2022/05/14 01:48:48;;;;;;;;;3.00;3.00;;;;;19.53;41.71;101638.66;2087918;28;47883;-56
2022/05/14 01:49:49;;;;;;;;;5.00;4.75;;;;;19.49;41.59;101637.06;2088603;28;47591;-56
2022/05/14 01:50:49;;;;;;;;;3.75;3.75;;;;;19.48;42.21;101639.81;2089123;28;47348;-56
2022/05/14 01:51:49;;;;;;;;;3.75;3.75;;;;;19.46;42.19;101642.59;2087954;28;47361;-56
2022/05/14 01:52:50;;;;;;;;;3.00;3.00;;;;;19.44;41.90;101641.78;2087853;28;47825;-56
2022/05/14 01:53:52;;;;;;;;;3.50;3.50;;;;;19.44;42.10;101630.13;2089091;28;47398;-56
2022/05/14 01:54:52;;;;;;;;;5.00;5.00;;;;;19.42;42.05;101635.56;2086006;28;48085;-57
2022/05/14 01:55:52;;;;;;;;;4.75;3.75;;;;;19.41;41.94;101633.81;2087917;28;47656;-56
2022/05/14 01:56:53;;;;;;;;;5.75;4.25;;;;;19.40;42.13;101641.03;2083514;28;47453;-57
2022/05/14 01:57:53;;;;;;;;;3.50;3.00;;;;;19.39;41.95;101631.19;2088333;28;47684;-56
2022/05/14 01:58:54;;;;;;;;;3.25;3.25;;;;;19.37;42.29;101633.09;2090566;28;47277;-56
2022/05/14 01:59:54;;;;;;;;;3.75;3.25;;;;;19.36;42.24;101634.03;2086625;28;47322;-57
2022/05/14 02:00:55;;;;;;;;;4.00;4.00;;;;;19.34;42.02;101632.34;2088941;28;47691;-56
2022/05/14 02:01:55;;;;;;;;;5.75;5.00;;;;;19.33;42.22;101638.69;2088841;28;47157;-56
2022/05/14 02:02:55;;;;;;;;;2.00;1.00;;;;;19.31;42.13;101632.47;2087369;28;47826;-57
2022/05/14 02:03:59;;;;;;;;;4.00;4.00;;;;;19.30;42.15;101634.28;2089130;28;48124;-56
2022/05/14 02:04:59;;;;;;;;;3.80;3.80;;;;;19.29;42.47;101631.66;2088351;28;47921;-56
2022/05/14 02:06:00;;;;;;;;;4.25;4.25;;;;;19.29;42.20;101634.34;2087730;28;47662;-56
2022/05/14 02:07:01;;;;;;;;;3.75;3.75;;;;;19.30;42.42;101633.41;2103571;28;46495;-56
2022/05/14 02:08:01;;;;;;;;;5.25;5.25;;;;;19.31;42.59;101629.78;2109669;27;47455;-56
2022/05/14 02:09:05;;;;;;;;;4.25;4.00;;;;;19.30;42.45;101630.72;2088966;27;47677;-55
2022/05/14 02:10:05;;;;;;;;;5.40;5.40;;;;;19.30;42.73;101634.28;2088789;28;47975;-55
2022/05/14 02:11:08;;;;;;;;;5.00;5.00;;;;;19.29;42.34;101632.53;2087478;28;47933;-56
2022/05/14 02:12:08;;;;;;;;;5.40;4.20;;;;;19.30;42.75;101636.09;2086755;28;48299;-56
2022/05/14 02:13:10;;;;;;;;;5.00;5.00;;;;;19.30;42.65;101636.09;2086006;28;48171;-56
2022/05/14 02:14:12;;;;;;;;;5.60;5.60;;;;;19.31;42.56;101638.75;2084503;28;47792;-56
2022/05/14 02:15:12;;;;;;;;;4.00;3.80;;;;;19.32;42.60;101636.94;2086093;28;47560;-57
2022/05/14 02:16:13;;;;;;;;;3.00;3.00;;;;;19.32;42.80;101631.56;2086773;28;48183;-56
2022/05/14 02:17:13;;;;;;;;;5.25;5.25;;;;;19.32;42.45;101628.88;2088805;28;47511;-56
2022/05/14 02:18:13;;;;;;;;;6.25;5.25;;;;;19.31;42.83;101630.69;2090022;28;47394;-55
2022/05/14 02:19:14;;;;;;;;;5.00;5.00;;;;;19.30;42.64;101628.91;2087203;28;45739;-55
2022/05/14 02:20:15;;;;;;;;;5.00;5.00;;;;;19.29;42.59;101627.16;2090580;28;47920;-55
2022/05/14 02:21:20;;;;;;;;;6.00;4.75;;;;;19.27;43.03;101626.34;2087410;28;47568;-55
2022/05/14 02:22:20;;;;;;;;;5.60;3.80;;;;;19.26;42.85;101629.97;2087709;28;47854;-56
2022/05/14 02:23:21;;;;;;;;;5.00;4.00;;;;;19.27;42.86;101625.47;2087627;28;47754;-56
2022/05/14 02:24:21;;;;;;;;;5.25;4.00;;;;;19.24;42.99;101623.81;2088030;28;47447;-55
2022/05/14 02:25:22;;;;;;;;;1.00;1.00;;;;;19.22;42.69;101630.19;2087734;28;47835;-57
2022/05/14 02:26:23;;;;;;;;;5.50;5.50;;;;;19.19;42.78;101623.13;2087847;28;47616;-56
2022/05/14 02:27:23;;;;;;;;;5.20;5.20;;;;;19.18;43.16;101623.19;2087650;28;47372;-57
2022/05/14 02:28:24;;;;;;;;;2.00;2.00;;;;;19.15;42.85;101626.88;2087822;28;45971;-56
2022/05/14 02:29:24;;;;;;;;;6.00;5.00;;;;;19.14;43.01;101630.50;2087703;28;47272;-57
2022/05/14 02:30:25;;;;;;;;;3.75;3.75;;;;;19.13;43.00;101622.50;2086813;28;48149;-56
2022/05/14 02:31:27;;;;;;;;;4.00;4.00;;;;;19.10;42.85;101626.22;2086206;28;47744;-56
2022/05/14 02:32:28;;;;;;;;;4.00;3.20;;;;;19.09;42.74;101625.34;2086007;28;47718;-55
2022/05/14 02:33:29;;;;;;;;;3.25;3.25;;;;;19.07;42.59;101621.84;2087843;28;46643;-57
2022/05/14 02:34:30;;;;;;;;;4.00;4.00;;;;;19.06;42.74;101622.78;2087892;28;47267;-56
2022/05/14 02:35:30;;;;;;;;;3.50;3.50;;;;;19.05;42.87;101625.50;2087660;28;47914;-55
2022/05/14 02:36:31;;;;;;;;;4.25;4.25;;;;;19.04;42.83;101624.63;2087873;28;47858;-56
2022/05/14 02:37:32;;;;;;;;;2.25;2.25;;;;;19.02;42.93;101625.66;2085415;28;48230;-57
2022/05/14 02:38:33;;;;;;;;;3.20;3.20;;;;;19.01;42.90;101631.97;2087880;28;46625;-56
2022/05/14 02:39:34;;;;;;;;;2.80;2.80;;;;;18.99;43.28;101629.34;2088070;28;47671;-54
2022/05/14 02:40:34;;;;;;;;;2.75;2.25;;;;;18.98;42.59;101626.72;2087427;28;47329;-57
2022/05/14 02:41:34;;;;;;;;;4.00;4.00;;;;;18.95;42.82;101619.66;2087848;28;48119;-57
2022/05/14 02:42:35;;;;;;;;;3.75;3.75;;;;;18.94;43.10;101631.38;2087485;28;47875;-57
2022/05/14 02:43:36;;;;;;;;;3.00;3.00;;;;;18.93;42.94;101624.25;2087517;28;47436;-57
2022/05/14 02:44:37;;;;;;;;;3.00;3.00;;;;;18.92;42.81;101626.97;2087570;28;47498;-56
2022/05/14 02:45:37;;;;;;;;;3.00;2.33;;;;;18.92;42.96;101629.66;2087486;28;47940;-57
2022/05/14 02:46:37;;;;;;;;;0.67;0.67;;;;;18.90;43.00;101627.03;2087284;28;47727;-56
2022/05/14 02:47:38;;;;;;;;;2.00;2.00;;;;;18.90;42.87;101634.22;2086778;28;47429;-56
2022/05/14 02:48:38;;;;;;;;;3.33;3.33;;;;;18.89;42.97;101635.19;2086888;28;48162;-56
2022/05/14 02:49:39;;;;;;;;;6.00;6.00;;;;;18.88;42.87;101630.75;2086968;28;47281;-55
2022/05/14 02:50:40;;;;;;;;;3.00;3.00;;;;;18.88;43.05;101639.69;2087203;28;47328;-56
2022/05/14 02:51:40;;;;;;;;;3.00;3.00;;;;;18.87;42.96;101635.25;2077840;28;48203;-56
2022/05/14 02:52:41;;;;;;;;;4.00;3.00;;;;;18.85;42.74;101630.88;2078145;28;47594;-58
2022/05/14 02:53:42;;;;;;;;;3.67;3.67;;;;;18.84;43.00;101635.38;2080152;28;48245;-56
2022/05/14 02:54:42;;;;;;;;;4.00;2.00;;;;;18.83;42.89;101635.44;2080655;28;47630;-56
2022/05/14 02:55:43;;;;;;;;;5.00;3.33;;;;;18.80;43.02;101634.63;2090504;28;48045;-56
2022/05/14 02:56:43;;;;;;;;;2.33;2.33;;;;;18.80;43.13;101631.03;2088937;28;47837;-57
2022/05/14 02:57:43;;;;;;;;;4.67;4.67;;;;;18.77;43.23;101631.19;2092248;28;47399;-57
2022/05/14 03:00:09;;;;;;;;;4.00;4.00;;;;;18.75;43.26;101635.75;2084523;28;47517;-56
2022/05/14 03:01:10;;;;;;;;;5.00;5.00;;;;;18.73;43.03;101629.56;2078179;28;47509;-56
2022/05/14 03:02:10;;;;;;;;;2.67;2.67;;;;;18.73;43.20;101634.94;2078478;28;48148;-56
2022/05/14 03:03:11;;;;;;;;;4.00;4.00;;;;;18.70;42.80;101635.94;2093620;28;47605;-56
2022/05/14 03:04:11;;;;;;;;;4.33;3.00;;;;;18.69;43.22;101630.63;2093984;28;48014;-56
2022/05/14 03:05:13;;;;;;;;;3.00;3.00;;;;;18.69;43.37;101639.59;2086642;28;48189;-55
2022/05/14 03:06:13;;;;;;;;;4.00;4.00;;;;;18.70;43.35;101632.38;2086991;28;47535;-56
2022/05/14 03:07:17;;;;;;;;;3.75;3.75;;;;;18.69;43.25;101633.31;2086823;28;48162;-56
2022/05/14 03:08:18;;;;;;;;;3.25;2.75;;;;;18.68;43.34;101640.53;2087414;28;45904;-56
2022/05/14 03:09:19;;;;;;;;;3.33;3.33;;;;;18.68;43.49;101636.97;2087473;28;47490;-55
2022/05/14 03:10:19;;;;;;;;;3.00;3.00;;;;;18.67;43.55;101636.06;2087555;28;47509;-56
2022/05/14 03:11:21;;;;;;;;;4.00;3.67;;;;;18.67;43.41;101638.75;2087539;28;47778;-56
2022/05/14 03:12:22;;;;;;;;;8.50;4.50;;;;;18.66;43.47;101634.31;2087507;28;47931;-55
2022/05/14 03:13:22;;;;;;;;;4.00;4.00;;;;;18.66;43.42;101641.50;2080700;28;48123;-57
2022/05/14 03:14:22;;;;;;;;;3.67;3.67;;;;;18.67;43.49;101643.25;2083989;28;46894;-55
2022/05/14 03:15:23;;;;;;;;;4.00;4.00;;;;;18.67;43.47;101637.88;2103570;28;47185;-56
2022/05/14 03:16:23;;;;;;;;;4.00;4.00;;;;;18.66;43.44;101637.00;2103464;27;47806;-56
2022/05/14 03:17:23;;;;;;;;;4.00;4.00;;;;;18.66;43.24;101634.31;2077854;28;47615;-56
2022/05/14 03:18:24;;;;;;;;;2.67;1.67;;;;;18.67;43.54;101635.19;2078057;28;48021;-56
2022/05/14 03:19:25;;;;;;;;;2.67;2.67;;;;;18.67;43.46;101632.50;2087007;28;47687;-55
2022/05/14 03:20:25;;;;;;;;;3.67;3.67;;;;;18.67;43.60;101629.81;2087580;28;47490;-56
2022/05/14 03:21:26;;;;;;;;;4.67;4.00;;;;;18.68;43.41;101628.91;2086867;28;48225;-57
2022/05/14 03:22:26;;;;;;;;;3.33;3.00;;;;;18.67;43.50;101630.66;2084953;28;48022;-57
2022/05/14 03:23:27;;;;;;;;;3.25;3.25;;;;;18.66;43.58;101633.44;2083263;28;47713;-57
2022/05/14 03:24:27;;;;;;;;;3.67;3.00;;;;;18.64;43.67;101628.13;2080893;28;47532;-57
2022/05/14 03:25:28;;;;;;;;;4.00;4.00;;;;;18.65;43.74;101626.31;2084807;28;47409;-58
2022/05/14 03:26:28;;;;;;;;;3.00;3.00;;;;;18.63;43.49;101629.03;2087620;28;47461;-57
2022/05/14 03:27:28;;;;;;;;;5.00;5.00;;;;;18.63;43.47;101626.34;2070436;28;47834;-56
2022/05/14 03:28:29;;;;;;;;;4.25;4.25;;;;;18.63;43.53;101625.47;2069024;28;47632;-55
2022/05/14 03:29:29;;;;;;;;;2.67;2.67;;;;;18.64;43.74;101632.63;2087696;28;47575;-53
2022/05/14 03:30:30;;;;;;;;;4.00;3.00;;;;;18.62;43.31;101632.66;2082712;28;48035;-54
2022/05/14 03:31:31;;;;;;;;;4.00;4.00;;;;;18.63;43.79;101626.34;2082464;28;47491;-54
2022/05/14 03:32:31;;;;;;;;;3.80;3.80;;;;;18.63;43.93;101629.03;2087498;28;48580;-55
2022/05/14 03:33:32;;;;;;;;;4.00;4.00;;;;;18.63;43.80;101637.09;2087926;28;47910;-54
2022/05/14 03:34:33;;;;;;;;;4.00;4.00;;;;;18.62;43.83;101631.78;2086014;28;47525;-58
2022/05/14 03:35:34;;;;;;;;;4.25;4.25;;;;;18.61;43.64;101630.03;2087287;28;48008;-56
2022/05/14 03:36:34;;;;;;;;;4.40;4.20;;;;;18.61;43.71;101630.03;2089273;28;48790;-54
2022/05/14 03:37:36;;;;;;;;;3.00;3.00;;;;;18.59;43.56;101632.78;2091727;28;47603;-54
2022/05/14 03:38:37;;;;;;;;;4.00;4.00;;;;;18.59;43.88;101635.47;2084805;28;47975;-54
2022/05/14 03:39:37;;;;;;;;;4.00;4.00;;;;;18.59;43.72;101632.78;2086352;28;47570;-54
2022/05/14 03:40:38;;;;;;;;;3.50;3.50;;;;;18.59;43.86;101634.59;2082291;28;47838;-55
2022/05/14 03:41:38;;;;;;;;;5.75;5.75;;;;;18.58;43.88;101632.84;2087399;28;47619;-56
2022/05/14 03:42:39;;;;;;;;;2.75;2.75;;;;;18.55;43.75;101633.84;2087294;28;47502;-56
2022/05/14 03:43:39;;;;;;;;;3.00;3.00;;;;;18.54;43.78;101630.25;2084950;28;47804;-56
2022/05/14 03:44:40;;;;;;;;;4.75;4.00;;;;;18.52;43.98;101629.44;2095057;28;47723;-56
2022/05/14 03:45:40;;;;;;;;;5.00;4.00;;;;;18.50;43.85;101631.34;2095311;28;47283;-56
2022/05/14 03:46:42;;;;;;;;;3.75;3.75;;;;;18.50;43.58;101633.16;2086931;28;48233;-54
2022/05/14 03:47:42;;;;;;;;;4.20;3.00;;;;;18.49;43.94;101623.34;2087126;28;47629;-56
2022/05/14 03:48:44;;;;;;;;;4.25;4.25;;;;;18.49;44.00;101631.41;2087429;28;47507;-54
2022/05/14 03:49:45;;;;;;;;;4.60;4.20;;;;;18.47;43.88;101631.47;2087420;28;47865;-55
2022/05/14 03:50:45;;;;;;;;;3.80;3.80;;;;;18.47;43.91;101631.47;2087436;28;48117;-54
2022/05/14 03:51:46;;;;;;;;;7.00;4.00;;;;;18.46;43.95;101628.84;2087496;28;46324;-56
2022/05/14 03:52:46;;;;;;;;;5.25;4.50;;;;;18.46;44.08;101636.91;2087418;28;47977;-56
2022/05/14 03:53:47;;;;;;;;;3.00;3.00;;;;;18.45;44.09;101635.16;2087469;28;47601;-56
2022/05/14 03:54:48;;;;;;;;;4.20;4.20;;;;;18.45;44.22;101629.78;2087474;28;47655;-56
2022/05/14 03:55:48;;;;;;;;;5.00;5.00;;;;;18.44;43.90;101631.59;2086473;28;47353;-56
2022/05/14 03:56:49;;;;;;;;;4.50;4.50;;;;;18.44;44.14;101634.28;2087234;28;47207;-55
2022/05/14 03:57:49;;;;;;;;;5.75;3.25;;;;;18.43;44.06;101631.66;2088624;28;47448;-56
2022/05/14 03:58:49;;;;;;;;;4.00;4.00;;;;;18.40;44.10;101635.31;2087071;28;48104;-54
2022/05/14 03:59:50;;;;;;;;;5.00;5.00;;;;;18.41;44.27;101630.81;2087283;28;48047;-55
2022/05/14 04:00:50;;;;;;;;;4.00;4.00;;;;;18.41;44.23;101630.81;2087112;28;48126;-53
2022/05/14 04:01:51;;;;;;;;;4.50;4.50;;;;;18.40;44.35;101632.63;2086987;28;47487;-55
2022/05/14 04:02:51;;;;;;;;;5.00;5.00;;;;;18.40;44.33;101634.44;2087052;28;47692;-52
2022/05/14 04:03:52;;;;;;;;;4.00;4.00;;;;;18.39;44.28;101636.25;2085697;28;47509;-55
2022/05/14 04:04:52;;;;;;;;;4.25;4.25;;;;;18.40;44.38;101639.81;2086183;28;46880;-53
2022/05/14 04:05:53;;;;;;;;;5.00;4.75;;;;;18.38;44.25;101639.88;2077715;28;47639;-56
2022/05/14 04:06:53;;;;;;;;;4.00;4.00;;;;;18.38;44.26;101637.19;2077812;28;47518;-56
2022/05/14 04:07:54;;;;;;;;;4.25;4.25;;;;;18.36;44.42;101632.81;2087088;28;47468;-56
2022/05/14 04:08:54;;;;;;;;;4.50;4.50;;;;;18.35;44.50;101626.56;2086724;28;48000;-55
2022/05/14 04:09:55;;;;;;;;;5.50;4.75;;;;;18.35;44.24;101631.94;2086689;28;47692;-56
2022/05/14 04:10:55;;;;;;;;;5.50;5.50;;;;;18.34;44.34;101630.19;2086948;28;47516;-55
2022/05/14 04:11:56;;;;;;;;;4.25;4.25;;;;;18.34;44.29;101630.19;2086441;28;48321;-56
2022/05/14 04:12:56;;;;;;;;;4.25;4.25;;;;;18.33;44.41;101631.13;2086560;28;47502;-56
2022/05/14 04:13:57;;;;;;;;;6.75;5.25;;;;;18.31;44.45;101624.94;2087167;28;48054;-56
2022/05/14 04:14:57;;;;;;;;;5.75;4.75;;;;;18.32;44.49;101625.81;2087536;28;47537;-54
2022/05/14 04:15:58;;;;;;;;;7.00;7.00;;;;;18.30;44.61;101617.84;2087342;28;47520;-56
2022/05/14 04:16:58;;;;;;;;;6.75;6.00;;;;;18.30;44.42;101627.69;2086754;28;47169;-56
2022/05/14 04:17:59;;;;;;;;;5.00;4.00;;;;;18.30;44.51;101628.56;2082687;28;47634;-55
2022/05/14 04:18:59;;;;;;;;;5.25;5.25;;;;;18.30;44.55;101627.69;2087310;28;48020;-55
2022/05/14 04:20:00;;;;;;;;;7.00;4.75;;;;;18.29;44.60;101632.16;2087115;28;47623;-55
2022/05/14 04:21:01;;;;;;;;;6.25;6.25;;;;;18.29;44.63;101633.97;2087178;28;47339;-56
2022/05/14 04:22:01;;;;;;;;;6.00;5.20;;;;;18.28;44.62;101633.09;2086769;28;47817;-55
2022/05/14 04:23:03;;;;;;;;;5.25;5.25;;;;;18.26;44.56;101632.31;2083958;28;47534;-56
2022/05/14 04:24:04;;;;;;;;;8.20;7.00;;;;;18.26;44.67;101628.75;2086725;28;48242;-55
2022/05/14 04:25:06;;;;;;;;;7.00;6.40;;;;;18.24;44.66;101629.69;2087260;28;47742;-54
2022/05/14 04:26:06;;;;;;;;;4.60;4.60;;;;;18.23;44.65;101627.94;2079931;28;47879;-56
2022/05/14 04:27:07;;;;;;;;;7.50;7.00;;;;;18.22;44.64;101628.88;2087205;28;47603;-56
2022/05/14 04:28:07;;;;;;;;;6.25;6.25;;;;;18.21;44.49;101632.50;2086822;28;47846;-54
2022/05/14 04:29:08;;;;;;;;;7.00;6.50;;;;;18.21;44.72;101629.81;2086527;28;47539;-55
2022/05/14 04:30:10;;;;;;;;;4.25;4.25;;;;;18.22;44.97;101636.06;2087016;28;45793;-56
2022/05/14 04:31:10;;;;;;;;;6.60;6.60;;;;;18.22;44.74;101636.06;2086985;28;47488;-55
2022/05/14 04:32:11;;;;;;;;;4.50;3.75;;;;;18.22;44.88;101638.75;2084874;28;47567;-55
2022/05/14 04:33:12;;;;;;;;;3.25;3.25;;;;;18.23;44.81;101629.75;2086949;28;47733;-55
2022/05/14 04:34:12;;;;;;;;;4.80;4.80;;;;;18.23;44.71;101633.31;2087098;28;47718;-55
2022/05/14 04:35:15;;;;;;;;;7.00;7.00;;;;;18.24;44.92;101631.50;2087284;28;47613;-54
2022/05/14 04:36:16;;;;;;;;;6.20;5.40;;;;;18.23;44.87;101641.38;2087200;28;47953;-54
2022/05/14 04:37:17;;;;;;;;;7.00;6.00;;;;;18.22;44.97;101633.38;2087073;28;47601;-54
2022/05/14 04:38:17;;;;;;;;;4.25;4.25;;;;;18.22;45.09;101631.56;2087067;28;48169;-54
2022/05/14 04:39:18;;;;;;;;;4.75;4.75;;;;;18.21;44.73;101632.50;2086892;28;48189;-54
2022/05/14 04:40:18;;;;;;;;;5.75;5.75;;;;;18.21;44.71;101634.31;2082681;28;47606;-56
2022/05/14 04:41:19;;;;;;;;;6.75;6.00;;;;;18.22;45.01;101628.88;2085660;28;47420;-55
2022/05/14 04:42:19;;;;;;;;;5.00;4.25;;;;;18.22;44.94;101628.88;2087129;28;47992;-54
2022/05/14 04:43:20;;;;;;;;;5.50;5.00;;;;;18.21;44.73;101632.50;2077564;28;47494;-56
2022/05/14 04:44:20;;;;;;;;;6.50;5.75;;;;;18.21;44.88;101637.00;2077719;28;47861;-55
2022/05/14 04:45:20;;;;;;;;;8.25;7.75;;;;;18.22;44.87;101641.44;2088660;28;47502;-54
2022/05/14 04:46:21;;;;;;;;;6.25;6.25;;;;;18.20;44.94;101630.75;2086460;28;48041;-56
2022/05/14 04:47:21;;;;;;;;;4.75;4.75;;;;;18.21;44.95;101634.31;2083629;28;48011;-55
2022/05/14 04:48:22;;;;;;;;;7.00;6.00;;;;;18.21;45.03;101637.00;2088777;28;47868;-56
2022/05/14 04:49:22;;;;;;;;;5.00;5.00;;;;;18.22;44.67;101638.75;2088039;28;47089;-55
2022/05/14 04:50:23;;;;;;;;;6.75;6.75;;;;;18.22;44.94;101639.63;2088402;28;48189;-56
2022/05/14 04:51:23;;;;;;;;;5.00;5.00;;;;;18.22;45.16;101638.75;2088977;28;47667;-53